Time;durP1;ratioP1;P1;durP2;ratioP2;P2;SDS_P1;SDS_P2;PMS_P1;PMS_P2;Temp;Humidity;BMP_temperature;BMP_pressure;BME280_temperature;BME280_humidity;BME280_pressure;Samples;Min_cycle;Max_cycle;Signal;HPM_P1;HPM_P2
2023/02/04 09:59:39;;;;;;;2.47;1.00;;;11.60;99.90;;;;;;5010761;23;20244;-73
2023/02/04 10:02:20;;;;;;;3.03;0.90;;;11.70;99.90;;;;;;4907190;29;20214;-75
2023/02/04 10:04:47;;;;;;;1.93;0.80;;;11.80;99.90;;;;;;4918094;29;20237;-75
2023/02/04 10:07:24;;;;;;;4.73;0.70;;;11.80;99.90;;;;;;4917946;29;20229;-75
2023/02/04 10:09:51;;;;;;;1.57;0.50;;;11.70;99.90;;;;;;4917927;29;20304;-75
2023/02/04 10:12:18;;;;;;;2.00;0.70;;;11.70;99.90;;;;;;4918016;29;20232;-75
2023/02/04 10:14:45;;;;;;;2.33;0.93;;;11.70;99.90;;;;;;4917626;29;20676;-73
2023/02/04 10:17:17;;;;;;;1.80;1.20;;;11.70;99.90;;;;;;4917534;29;20236;-76
2023/02/04 10:19:43;;;;;;;3.00;1.00;;;11.70;99.90;;;;;;4917567;29;20672;-73
2023/02/04 10:22:17;;;;;;;2.37;0.87;;;11.70;99.90;;;;;;4917792;29;20210;-75
2023/02/04 10:24:44;;;;;;;1.90;1.10;;;11.50;99.90;;;;;;4917772;29;20260;-75
2023/02/04 10:27:14;;;;;;;2.30;0.77;;;11.50;99.90;;;;;;4917745;29;20222;-75
2023/02/04 10:29:42;;;;;;;2.70;0.83;;;11.60;99.90;;;;;;4917695;29;20213;-76
2023/02/04 10:32:30;;;;;;;1.50;0.70;;;11.60;99.90;;;;;;4917657;29;20212;-77
2023/02/04 10:34:58;;;;;;;2.60;1.03;;;11.60;99.90;;;;;;4917485;29;20210;-78
2023/02/04 10:37:25;;;;;;;1.43;0.90;;;11.70;99.90;;;;;;4909021;29;20280;-76
2023/02/04 10:39:52;;;;;;;1.00;0.60;;;11.70;99.90;;;;;;4918671;29;20210;-78
2023/02/04 10:42:22;;;;;;;1.97;0.70;;;11.60;99.90;;;;;;4917801;29;20205;-76
2023/02/04 10:44:49;;;;;;;2.60;0.80;;;11.50;99.90;;;;;;4917371;29;20238;-74
2023/02/04 10:47:18;;;;;;;2.57;1.00;;;11.50;99.90;;;;;;4917049;29;20221;-75
2023/02/04 10:49:54;;;;;;;2.67;0.70;;;11.50;99.90;;;;;;4917385;29;20210;-76
2023/02/04 10:52:24;;;;;;;2.20;0.90;;;11.50;99.90;;;;;;4917211;29;20201;-76
2023/02/04 10:54:50;;;;;;;3.00;0.90;;;11.50;99.90;;;;;;4916965;29;20656;-79
2023/02/04 10:57:20;;;;;;;1.30;0.83;;;11.50;99.90;;;;;;4917435;29;20229;-78
2023/02/04 10:59:49;;;;;;;2.17;0.70;;;11.60;99.90;;;;;;4917120;29;20671;-79
2023/02/04 11:02:44;;;;;;;2.00;0.70;;;11.60;99.90;;;;;;4917015;29;20688;-78
2023/02/04 11:05:15;;;;;;;1.33;0.90;;;11.50;99.90;;;;;;4911995;29;20715;-83
2023/02/04 11:07:43;;;;;;;1.23;0.80;;;11.40;99.90;;;;;;4916892;29;20229;-82
2023/02/04 11:10:14;;;;;;;2.20;1.07;;;11.30;99.90;;;;;;4917269;29;20236;-81
2023/02/04 11:12:43;;;;;;;1.00;0.80;;;11.40;99.90;;;;;;4917235;29;20216;-80
2023/02/04 11:15:40;;;;;;;1.47;0.70;;;11.40;99.90;;;;;;4917761;29;20223;-83
2023/02/04 11:18:09;;;;;;;1.53;0.70;;;11.60;99.90;;;;;;4916981;29;20746;-74
2023/02/04 16:31:53;;;;;;;13.03;7.13;;;12.00;99.90;;;;;;4936647;29;20243;-70
2023/02/04 16:34:20;;;;;;;13.33;6.83;;;11.90;99.90;;;;;;4923637;29;20212;-72
2023/02/04 16:36:46;;;;;;;14.43;7.20;;;12.00;99.90;;;;;;4929077;29;20232;-72
2023/02/04 16:39:13;;;;;;;17.77;8.83;;;12.00;99.90;;;;;;4922581;29;20213;-72
2023/02/04 16:41:40;;;;;;;17.50;8.10;;;11.90;99.90;;;;;;4924354;29;20657;-72
2023/02/04 16:44:07;;;;;;;15.80;8.13;;;11.90;99.90;;;;;;4922967;29;20210;-72
2023/02/04 16:46:33;;;;;;;16.73;8.57;;;12.00;99.90;;;;;;4924893;29;20229;-72
2023/02/04 16:49:03;;;;;;;15.73;7.30;;;12.00;99.90;;;;;;4921025;29;20224;-72
2023/02/04 16:51:30;;;;;;;17.37;8.50;;;12.00;99.90;;;;;;4919238;29;20214;-73
2023/02/04 16:53:57;;;;;;;13.73;7.20;;;11.90;99.90;;;;;;4923334;29;20206;-72
2023/02/04 16:56:28;;;;;;;16.97;7.13;;;12.00;99.90;;;;;;4918885;29;20237;-73
2023/02/04 16:58:55;;;;;;;15.67;7.30;;;12.00;99.90;;;;;;4921486;29;20214;-73
2023/02/04 17:01:21;;;;;;;11.17;5.97;;;11.90;99.90;;;;;;4918652;29;20684;-71
2023/02/04 17:03:48;;;;;;;11.43;6.17;;;11.80;99.90;;;;;;4922200;29;20676;-69
2023/02/04 17:06:17;;;;;;;12.83;6.23;;;11.70;99.90;;;;;;4918134;29;20716;-72
2023/02/04 17:08:44;;;;;;;11.83;5.10;;;11.70;99.90;;;;;;4918721;29;20210;-72
2023/02/04 17:11:30;;;;;;;9.20;5.17;;;11.70;99.90;;;;;;4918323;29;20398;-72
2023/02/04 17:13:57;;;;;;;12.10;4.50;;;11.60;99.90;;;;;;4922187;29;20229;-71
2023/02/04 17:16:24;;;;;;;8.67;4.67;;;11.60;99.90;;;;;;4921675;29;20233;-70
2023/02/04 17:18:51;;;;;;;8.07;4.43;;;11.70;99.90;;;;;;4919116;29;20764;-69
2023/02/04 17:21:19;;;;;;;9.20;4.50;;;11.70;99.90;;;;;;4921070;29;20220;-69
2023/02/04 17:26:43;;;;;;;10.23;4.70;;;11.50;99.90;;;;;;4920954;29;20226;-69
2023/02/04 17:29:13;;;;;;;9.83;4.20;;;11.40;99.90;;;;;;4918373;29;20210;-69
2023/02/04 17:31:55;;;;;;;7.90;4.20;;;11.30;99.90;;;;;;4915429;29;20213;-73
2023/02/04 17:34:22;;;;;;;7.97;4.13;;;11.30;99.90;;;;;;4916971;29;20292;-69
2023/02/04 17:36:51;;;;;;;8.00;4.13;;;11.30;99.90;;;;;;4918288;29;20229;-69
2023/02/04 17:39:18;;;;;;;7.30;3.80;;;11.40;99.90;;;;;;4917896;29;20221;-72
2023/02/04 17:41:44;;;;;;;7.73;4.00;;;11.30;99.90;;;;;;4918735;29;20224;-70
2023/02/04 17:44:15;;;;;;;7.33;3.90;;;11.30;99.90;;;;;;4918627;29;20661;-70
2023/02/04 17:46:42;;;;;;;5.70;3.80;;;11.30;99.90;;;;;;4918359;29;20648;-70
2023/02/04 17:49:09;;;;;;;11.47;3.97;;;11.30;99.90;;;;;;4918595;29;20209;-69
2023/02/04 17:51:36;;;;;;;7.37;3.57;;;11.30;99.90;;;;;;4918545;29;20217;-70
2023/02/04 17:54:04;;;;;;;8.63;3.57;;;11.30;99.90;;;;;;4918660;29;20210;-69
2023/02/04 17:56:31;;;;;;;6.23;3.63;;;11.30;99.90;;;;;;4917994;29;20230;-71
2023/02/04 17:58:58;;;;;;;5.63;3.20;;;11.20;99.90;;;;;;4918302;29;20227;-71
2023/02/04 18:01:25;;;;;;;7.40;3.37;;;11.30;99.90;;;;;;4918319;29;20293;-71
2023/02/04 18:03:51;;;;;;;7.30;3.20;;;11.30;99.90;;;;;;4918388;29;20206;-70
2023/02/04 18:06:20;;;;;;;7.43;3.23;;;11.40;99.90;;;;;;4918138;29;20237;-71
2023/02/04 18:08:48;;;;;;;8.17;3.50;;;11.50;99.90;;;;;;4918085;29;20210;-71
2023/02/04 18:11:20;;;;;;;7.47;3.20;;;11.40;99.90;;;;;;4918037;29;20209;-70
2023/02/04 18:13:48;;;;;;;6.10;3.07;;;11.40;99.90;;;;;;4917876;29;20221;-69
2023/02/04 18:16:35;;;;;;;9.27;4.47;;;11.30;99.90;;;;;;4926953;29;20233;-69
2023/02/04 18:19:16;;;;;;;6.27;3.57;;;11.20;99.90;;;;;;4917495;29;20206;-71
2023/02/04 18:21:43;;;;;;;9.50;4.37;;;11.10;99.90;;;;;;4917409;29;20201;-69
2023/02/04 18:24:17;;;;;;;7.40;4.27;;;11.10;99.90;;;;;;4916607;29;20210;-70
2023/02/04 18:26:47;;;;;;;9.53;4.43;;;11.20;99.90;;;;;;4915975;29;20252;-71
2023/02/04 18:29:28;;;;;;;7.47;4.43;;;11.30;99.90;;;;;;4916112;29;20301;-71
2023/02/04 18:31:57;;;;;;;9.13;4.60;;;11.30;99.90;;;;;;4915871;29;20202;-70
2023/02/04 18:34:29;;;;;;;10.17;4.90;;;11.30;99.90;;;;;;4917232;29;20209;-71
2023/02/04 18:36:56;;;;;;;9.53;4.60;;;11.30;99.90;;;;;;4917489;29;20237;-71
2023/02/04 18:39:27;;;;;;;7.50;4.40;;;11.30;99.90;;;;;;4917470;29;20693;-71
2023/02/04 18:41:55;;;;;;;7.30;3.87;;;11.30;99.90;;;;;;4917307;29;20205;-70
2023/02/04 18:44:30;;;;;;;9.80;5.30;;;11.30;99.90;;;;;;4917234;29;20216;-70
2023/02/04 18:46:56;;;;;;;9.50;4.10;;;11.40;99.90;;;;;;4916725;29;20300;-70
2023/02/04 18:49:26;;;;;;;9.23;4.53;;;11.30;99.90;;;;;;4917108;29;20210;-70
2023/02/04 18:51:53;;;;;;;8.37;4.50;;;11.30;99.90;;;;;;4917563;29;20209;-69
2023/02/04 18:54:36;;;;;;;11.00;4.97;;;11.20;99.90;;;;;;4917468;29;20212;-69
2023/02/04 18:57:27;;;;;;;7.23;3.80;;;11.20;99.90;;;;;;4917136;29;20235;-70
2023/02/04 18:59:59;;;;;;;7.50;4.27;;;11.20;99.90;;;;;;4917439;29;20213;-70
2023/02/04 19:02:35;;;;;;;9.27;4.27;;;11.30;99.90;;;;;;4917050;29;20592;-69
2023/02/04 19:05:04;;;;;;;6.83;4.20;;;11.30;99.90;;;;;;4917094;29;20209;-70
2023/02/04 19:07:35;;;;;;;8.63;4.47;;;11.10;99.90;;;;;;4917150;29;20239;-71
2023/02/04 19:10:24;;;;;;;7.97;4.80;;;11.10;99.90;;;;;;4917105;29;20206;-69
2023/02/04 19:12:53;;;;;;;9.03;4.00;;;11.00;99.90;;;;;;4917058;29;20220;-69
2023/02/04 19:15:38;;;;;;;8.97;4.80;;;10.90;99.90;;;;;;4917095;29;20740;-69
2023/02/04 19:18:21;;;;;;;8.10;4.80;;;10.80;99.90;;;;;;4917058;29;20712;-71
2023/02/04 19:20:47;;;;;;;9.87;4.23;;;10.80;99.90;;;;;;4917028;29;20213;-70
2023/02/04 19:23:17;;;;;;;10.67;4.67;;;10.70;99.90;;;;;;4916902;29;20575;-71
2023/02/04 19:25:46;;;;;;;14.53;4.53;;;10.80;99.90;;;;;;4916703;29;20248;-69
2023/02/04 19:28:36;;;;;;;7.50;3.87;;;10.80;99.90;;;;;;4916983;29;20625;-70
2023/02/04 19:31:04;;;;;;;8.43;4.40;;;10.80;99.90;;;;;;4912952;29;20220;-71
2023/02/04 19:33:35;;;;;;;8.83;4.67;;;10.80;99.90;;;;;;4917144;29;20212;-70
2023/02/04 19:36:18;;;;;;;8.30;4.73;;;11.00;99.90;;;;;;4917225;29;20241;-71
2023/02/04 19:38:51;;;;;;;8.67;4.93;;;11.00;99.90;;;;;;4916863;29;20273;-70
2023/02/04 19:41:25;;;;;;;7.60;4.50;;;11.00;99.90;;;;;;4916394;29;20213;-70
2023/02/04 19:44:17;;;;;;;7.27;4.40;;;11.00;99.90;;;;;;4916347;29;20210;-71
2023/02/04 19:46:44;;;;;;;9.50;4.23;;;11.00;99.90;;;;;;4917503;29;20241;-69
2023/02/04 19:49:21;;;;;;;10.37;4.90;;;11.10;99.90;;;;;;4916428;29;20285;-69
2023/02/04 19:51:51;;;;;;;11.90;4.53;;;11.00;99.90;;;;;;4915834;29;20209;-69
2023/02/04 19:54:23;;;;;;;10.70;4.40;;;11.00;99.90;;;;;;4920575;29;20222;-69
2023/02/04 19:56:50;;;;;;;6.87;4.13;;;11.00;99.90;;;;;;4915555;29;20229;-69
2023/02/04 19:59:24;;;;;;;9.73;4.47;;;11.00;99.90;;;;;;4921232;29;20214;-68
2023/02/04 20:01:59;;;;;;;6.97;4.30;;;10.90;99.90;;;;;;4917338;29;20206;-69
2023/02/04 20:04:34;;;;;;;9.33;5.13;;;10.90;99.90;;;;;;4917644;29;20209;-68
2023/02/04 20:07:01;;;;;;;10.60;4.80;;;10.70;99.90;;;;;;4917367;29;20600;-70
2023/02/04 20:09:29;;;;;;;11.77;5.07;;;10.80;99.90;;;;;;4915800;29;20213;-69
2023/02/04 20:11:59;;;;;;;10.07;5.43;;;10.70;99.90;;;;;;4919489;29;20285;-68
2023/02/04 20:14:36;;;;;;;10.00;4.67;;;10.70;99.90;;;;;;4915911;29;20210;-69
2023/02/04 20:17:12;;;;;;;11.03;5.13;;;10.60;99.90;;;;;;4915689;29;20233;-68
2023/02/04 20:19:40;;;;;;;11.83;5.40;;;10.60;99.90;;;;;;4916527;29;20201;-70
2023/02/04 20:22:45;;;;;;;9.70;5.13;;;10.70;99.90;;;;;;4920147;29;20217;-71
2023/02/04 20:25:46;;;;;;;9.60;5.07;;;10.80;99.90;;;;;;4920668;29;20208;-70
2023/02/04 20:28:28;;;;;;;10.83;4.83;;;10.80;99.90;;;;;;4915823;29;20312;-69
2023/02/04 20:30:59;;;;;;;10.77;5.20;;;10.90;99.90;;;;;;4924260;29;20232;-68
2023/02/04 20:33:29;;;;;;;9.43;4.70;;;10.90;99.90;;;;;;4915843;29;20684;-69
2023/02/04 20:36:44;;;;;;;9.17;5.00;;;10.90;99.90;;;;;;4916440;29;20210;-72
2023/02/04 20:39:39;;;;;;;16.87;7.93;;;10.90;99.90;;;;;;4919813;29;20269;-68
2023/02/04 20:42:34;;;;;;;11.17;5.43;;;10.90;99.90;;;;;;4919119;29;20231;-68
2023/02/04 20:45:25;;;;;;;9.30;5.63;;;11.00;99.90;;;;;;4924059;29;20217;-68
2023/02/04 20:47:56;;;;;;;13.77;5.80;;;10.80;99.90;;;;;;4930496;29;20236;-69
2023/02/04 20:50:40;;;;;;;15.10;5.97;;;10.70;99.90;;;;;;4922881;29;20212;-70
2023/02/04 20:53:14;;;;;;;9.17;4.93;;;10.70;99.90;;;;;;4922219;29;20213;-70
2023/02/04 20:55:48;;;;;;;13.67;4.80;;;10.70;99.90;;;;;;4924514;29;20209;-69
2023/02/04 20:58:17;;;;;;;9.13;4.90;;;10.60;99.90;;;;;;4923731;29;20240;-72
2023/02/04 21:00:47;;;;;;;8.57;5.00;;;10.50;99.90;;;;;;4919244;29;20202;-69
2023/02/04 21:03:24;;;;;;;9.00;4.87;;;10.40;99.90;;;;;;4921140;29;20664;-69
2023/02/04 21:05:52;;;;;;;10.60;4.87;;;10.50;99.90;;;;;;4918975;29;20276;-68
2023/02/04 21:08:28;;;;;;;8.57;5.07;;;10.50;99.90;;;;;;4923173;29;20229;-68
2023/02/04 21:10:56;;;;;;;8.87;5.23;;;10.50;99.90;;;;;;4919983;29;20221;-68
2023/02/04 21:13:22;;;;;;;10.00;5.07;;;10.50;99.90;;;;;;4921418;29;20221;-68
2023/02/04 21:15:49;;;;;;;16.73;8.43;;;10.70;99.90;;;;;;4920644;29;20213;-68
2023/02/04 21:18:18;;;;;;;11.03;5.33;;;10.70;99.90;;;;;;4921130;29;20242;-68
2023/02/04 21:20:45;;;;;;;10.27;5.73;;;10.60;99.90;;;;;;4920887;29;20197;-69
2023/02/04 21:23:12;;;;;;;11.67;6.30;;;10.50;99.90;;;;;;4922965;29;20209;-69
2023/02/04 21:25:39;;;;;;;15.03;5.83;;;10.50;99.90;;;;;;4918723;29;20662;-69
2023/02/04 21:28:06;;;;;;;11.67;4.80;;;10.60;99.90;;;;;;4918768;29;20229;-68
2023/02/04 21:30:33;;;;;;;14.67;5.37;;;10.50;99.90;;;;;;4920827;29;20221;-68
2023/02/04 21:33:00;;;;;;;11.70;4.90;;;10.40;99.90;;;;;;4918747;29;20248;-69
2023/02/04 21:35:29;;;;;;;8.83;5.07;;;10.50;99.90;;;;;;4918846;29;20209;-69
2023/02/04 21:37:58;;;;;;;11.77;4.83;;;10.60;99.90;;;;;;4918028;29;20238;-69
2023/02/04 21:40:26;;;;;;;10.87;5.37;;;10.60;99.90;;;;;;4918324;29;20699;-68
2023/02/04 21:42:53;;;;;;;11.77;6.23;;;10.50;99.90;;;;;;4918316;29;20216;-68
2023/02/04 21:45:22;;;;;;;11.97;5.57;;;10.50;99.90;;;;;;4918559;29;20218;-68
2023/02/04 21:47:50;;;;;;;13.10;6.27;;;10.30;99.90;;;;;;4917766;29;20700;-69
2023/02/04 21:50:18;;;;;;;10.23;5.60;;;10.40;99.90;;;;;;4917646;29;20684;-69
2023/02/04 21:52:47;;;;;;;11.30;5.80;;;10.50;99.90;;;;;;4918527;29;20209;-69
2023/02/04 21:55:16;;;;;;;11.37;6.57;;;10.30;99.90;;;;;;4918054;29;20201;-70
